Time;durP1;ratioP1;P1;durP2;ratioP2;P2;SDS_P1;SDS_P2;PMS_P1;PMS_P2;Temp;Humidity;BMP_temperature;BMP_pressure;BME280_temperature;BME280_humidity;BME280_pressure;Samples;Min_cycle;Max_cycle;Signal;HPM_P1;HPM_P2
2023/09/20 00:02:09;;;;;;;2.73;1.70;;;22.40;51.00;;;;;;4991482;28;20445;-45
2023/09/20 00:04:35;;;;;;;3.60;2.20;;;22.20;51.30;;;;;;4991482;28;20445;-45
2023/09/20 00:07:02;;;;;;;4.40;2.30;;;22.10;51.50;;;;;;4992925;28;20503;-46
2023/09/20 00:09:30;;;;;;;3.60;2.30;;;22.00;51.70;;;;;;4993028;28;20464;-46
2023/09/20 00:11:56;;;;;;;3.30;2.30;;;22.00;52.00;;;;;;4987523;28;20452;-46
2023/09/20 00:14:22;;;;;;;5.40;2.10;;;21.80;52.20;;;;;;4990883;28;20454;-49
2023/09/20 00:16:48;;;;;;;2.20;2.00;;;21.80;52.40;;;;;;4989590;28;20230;-45
2023/09/20 00:19:13;;;;;;;2.30;2.10;;;21.70;52.50;;;;;;4991837;28;20449;-46
2023/09/20 00:21:39;;;;;;;2.10;1.83;;;21.60;52.70;;;;;;4992948;28;20199;-45
2023/09/20 00:24:05;;;;;;;2.87;2.00;;;21.60;52.80;;;;;;4991766;28;21576;-46
2023/09/20 00:26:34;;;;;;;2.13;2.03;;;21.60;53.00;;;;;;4988628;28;20198;-46
2023/09/20 00:29:05;;;;;;;2.37;2.17;;;21.60;53.20;;;;;;4990502;28;20191;-46
2023/09/20 00:31:32;;;;;;;2.40;2.03;;;21.60;53.10;;;;;;4988798;28;20453;-45
2023/09/20 00:33:58;;;;;;;3.10;2.10;;;21.50;53.40;;;;;;4992883;28;20453;-45
2023/09/20 00:36:24;;;;;;;3.80;2.17;;;21.40;53.50;;;;;;4991631;28;20999;-46
2023/09/20 00:38:51;;;;;;;2.47;1.90;;;20.90;54.90;;;;;;4990981;28;20442;-47
2023/09/20 00:41:17;;;;;;;3.13;2.00;;;21.00;54.90;;;;;;4991355;28;20672;-46
2023/09/20 00:43:43;;;;;;;2.50;2.17;;;21.20;54.80;;;;;;4990105;28;20446;-46
2023/09/20 00:46:09;;;;;;;2.30;2.10;;;21.20;54.10;;;;;;4974148;28;20207;-46
2023/09/20 00:48:35;;;;;;;3.10;1.90;;;21.20;54.30;;;;;;4989800;28;20224;-47
2023/09/20 00:51:02;;;;;;;2.80;2.20;;;21.30;54.10;;;;;;4985327;28;20525;-45
2023/09/20 00:53:28;;;;;;;2.63;2.40;;;21.30;54.40;;;;;;4990731;28;20460;-47
2023/09/20 00:55:55;;;;;;;4.13;2.37;;;21.20;54.60;;;;;;4991268;28;20445;-46
2023/09/20 00:58:23;;;;;;;2.60;2.40;;;21.10;54.70;;;;;;4989722;28;20199;-45
2023/09/20 01:00:51;;;;;;;1.90;1.60;;;21.10;54.70;;;;;;4990882;28;20453;-45
2023/09/20 01:03:18;;;;;;;2.67;2.10;;;20.90;54.90;;;;;;4988130;28;20494;-46
2023/09/20 01:05:47;;;;;;;2.63;2.00;;;20.90;54.90;;;;;;4993023;28;20437;-46
2023/09/20 01:08:12;;;;;;;6.83;2.23;;;21.00;55.10;;;;;;4991432;28;21289;-48
2023/09/20 01:10:38;;;;;;;2.80;1.87;;;21.00;54.80;;;;;;4991492;28;20561;-46
2023/09/20 01:13:05;;;;;;;3.07;2.00;;;20.90;54.90;;;;;;4993358;28;20250;-48
2023/09/20 01:15:33;;;;;;;3.00;2.50;;;20.80;55.50;;;;;;4991811;28;20190;-45
2023/09/20 01:18:01;;;;;;;2.40;2.20;;;20.80;55.40;;;;;;4991713;28;20488;-46
2023/09/20 01:20:28;;;;;;;2.00;1.87;;;20.80;55.30;;;;;;4994980;28;20426;-48
2023/09/20 01:22:59;;;;;;;2.70;2.37;;;20.80;55.30;;;;;;4995800;28;20425;-45
2023/09/20 01:25:27;;;;;;;2.70;1.70;;;20.80;55.10;;;;;;4992852;28;20565;-47
2023/09/20 01:27:55;;;;;;;4.23;2.20;;;20.80;55.10;;;;;;4991429;28;20465;-45
2023/09/20 01:30:25;;;;;;;2.43;1.80;;;20.70;55.30;;;;;;4992342;28;20457;-45
2023/09/20 01:32:55;;;;;;;6.60;2.20;;;20.80;55.20;;;;;;4991781;28;20469;-45
2023/09/20 01:35:22;;;;;;;3.10;2.20;;;20.70;55.00;;;;;;4990467;28;20442;-51
2023/09/20 01:37:49;;;;;;;4.53;3.40;;;20.70;55.20;;;;;;4988954;28;21051;-45
2023/09/20 01:40:15;;;;;;;3.77;3.20;;;20.60;55.30;;;;;;4984615;28;20480;-46
2023/09/20 01:42:45;;;;;;;4.10;2.80;;;20.60;55.30;;;;;;4989847;28;20481;-45
2023/09/20 01:45:16;;;;;;;3.70;3.13;;;20.50;55.40;;;;;;4988100;28;20456;-45
2023/09/20 01:47:49;;;;;;;4.70;2.83;;;20.50;55.40;;;;;;4989523;28;20450;-46
2023/09/20 01:50:19;;;;;;;3.10;2.80;;;20.50;55.50;;;;;;4988367;28;20945;-47
2023/09/20 01:52:49;;;;;;;2.83;2.53;;;20.40;55.60;;;;;;4990115;28;20841;-46
2023/09/20 01:55:17;;;;;;;2.50;2.27;;;20.20;56.50;;;;;;4991425;28;20949;-46
2023/09/20 01:57:46;;;;;;;2.40;2.20;;;20.10;56.90;;;;;;4989938;28;20643;-47
2023/09/20 02:00:22;;;;;;;2.70;2.10;;;20.10;57.10;;;;;;4992409;28;20462;-49
2023/09/20 02:02:49;;;;;;;6.07;2.77;;;20.10;56.90;;;;;;4990335;28;20442;-45
2023/09/20 02:05:16;;;;;;;4.43;2.93;;;20.10;57.10;;;;;;4988980;28;20457;-46
2023/09/20 02:07:42;;;;;;;4.20;2.60;;;20.10;56.80;;;;;;4987319;28;20517;-46
2023/09/20 02:10:08;;;;;;;3.00;2.50;;;20.20;56.80;;;;;;4987535;28;20488;-45
2023/09/20 02:12:34;;;;;;;3.03;2.70;;;20.20;56.50;;;;;;4990613;28;20446;-45
2023/09/20 02:15:00;;;;;;;2.97;2.70;;;20.30;56.30;;;;;;4992414;28;20198;-45
2023/09/20 02:17:26;;;;;;;3.33;2.17;;;20.30;56.30;;;;;;4990066;28;20696;-45
2023/09/20 02:19:54;;;;;;;5.90;2.27;;;20.20;56.40;;;;;;4991327;28;20453;-46
2023/09/20 02:22:20;;;;;;;3.63;2.33;;;20.20;56.40;;;;;;4991383;28;20561;-46
2023/09/20 02:24:46;;;;;;;2.43;1.87;;;20.20;56.30;;;;;;4988222;28;20469;-46
2023/09/20 02:27:11;;;;;;;2.03;1.83;;;20.20;56.20;;;;;;4988069;28;20429;-48
2023/09/20 02:29:37;;;;;;;4.00;2.10;;;20.20;56.10;;;;;;4990444;28;20226;-45
2023/09/20 02:32:03;;;;;;;3.07;2.30;;;20.20;56.10;;;;;;4989291;28;20704;-45
2023/09/20 02:34:29;;;;;;;3.07;2.27;;;20.20;56.40;;;;;;4981487;28;20246;-45
2023/09/20 02:36:56;;;;;;;3.17;2.50;;;20.20;56.30;;;;;;4991496;28;20313;-45
2023/09/20 02:39:22;;;;;;;4.13;2.33;;;20.20;56.60;;;;;;4992185;28;20465;-46
2023/09/20 02:41:48;;;;;;;2.93;2.03;;;20.10;56.40;;;;;;4988377;28;20564;-46
2023/09/20 02:44:14;;;;;;;4.37;2.07;;;20.10;56.70;;;;;;4989951;28;20529;-46
2023/09/20 02:46:40;;;;;;;2.23;2.03;;;20.00;56.70;;;;;;4985249;28;20199;-47
2023/09/20 02:49:07;;;;;;;3.83;2.07;;;19.90;57.20;;;;;;4987836;28;20210;-45
2023/09/20 02:51:35;;;;;;;2.20;2.00;;;20.00;56.80;;;;;;4989398;28;20210;-45
2023/09/20 02:54:01;;;;;;;3.50;2.40;;;20.00;56.80;;;;;;4990784;28;20465;-45
2023/09/20 02:56:26;;;;;;;4.17;2.17;;;20.00;56.90;;;;;;4988359;28;20584;-45
2023/09/20 02:58:52;;;;;;;5.63;2.70;;;20.00;57.00;;;;;;4987105;28;20580;-46
2023/09/20 03:01:18;;;;;;;2.63;2.10;;;19.90;57.20;;;;;;4986984;28;20622;-46
2023/09/20 03:03:44;;;;;;;3.00;2.10;;;19.90;57.30;;;;;;4989853;28;20533;-46
2023/09/20 03:06:10;;;;;;;2.43;2.23;;;19.80;57.60;;;;;;4989091;28;20654;-45
2023/09/20 03:08:36;;;;;;;3.60;2.27;;;19.80;57.60;;;;;;4988394;28;20662;-46
2023/09/20 03:11:01;;;;;;;3.07;2.40;;;19.80;57.50;;;;;;4989589;28;20495;-46
2023/09/20 03:13:27;;;;;;;2.60;2.40;;;19.80;57.40;;;;;;4984036;28;20289;-45
2023/09/20 03:15:54;;;;;;;6.73;2.30;;;19.90;57.20;;;;;;4992958;28;20612;-45
2023/09/20 03:18:22;;;;;;;3.00;2.60;;;19.90;56.90;;;;;;4991910;28;20548;-45
2023/09/20 03:20:49;;;;;;;2.90;2.20;;;19.90;57.10;;;;;;4994205;28;20527;-45
2023/09/20 03:23:14;;;;;;;2.97;2.40;;;19.90;57.00;;;;;;4992374;28;20453;-45
2023/09/20 03:25:40;;;;;;;2.30;2.10;;;19.90;57.20;;;;;;4987225;28;20470;-46
2023/09/20 03:28:07;;;;;;;5.20;2.50;;;19.90;57.30;;;;;;4992554;28;20477;-46
2023/09/20 03:30:34;;;;;;;1.97;1.77;;;19.90;57.30;;;;;;4991243;28;20445;-46
2023/09/20 03:33:00;;;;;;;2.90;2.67;;;19.90;57.00;;;;;;4991592;28;20537;-49
2023/09/20 03:35:26;;;;;;;2.57;2.33;;;19.90;57.00;;;;;;4992740;28;20557;-50
2023/09/20 03:37:52;;;;;;;1.83;1.73;;;19.90;57.00;;;;;;4993775;28;20575;-49
2023/09/20 03:40:19;;;;;;;2.60;2.40;;;19.80;56.90;;;;;;4994111;28;20194;-49
2023/09/20 03:42:46;;;;;;;3.30;2.80;;;19.80;57.10;;;;;;4994686;28;20487;-50
2023/09/20 03:45:16;;;;;;;2.70;2.40;;;19.80;57.00;;;;;;4992825;28;20544;-50
2023/09/20 03:47:44;;;;;;;3.90;2.33;;;19.70;57.30;;;;;;4993963;28;20434;-50
2023/09/20 03:50:10;;;;;;;4.83;2.33;;;19.70;57.60;;;;;;4992303;28;20912;-50
2023/09/20 03:52:37;;;;;;;2.87;2.10;;;19.70;57.50;;;;;;4991508;28;20445;-49
2023/09/20 03:55:03;;;;;;;3.67;2.57;;;19.70;57.50;;;;;;4992313;28;20385;-47
2023/09/20 03:57:29;;;;;;;5.37;2.20;;;19.70;57.40;;;;;;4991326;28;20482;-48
2023/09/20 03:59:57;;;;;;;3.60;2.77;;;19.60;57.60;;;;;;4993567;28;20465;-46
2023/09/20 04:02:23;;;;;;;2.83;2.63;;;19.60;57.40;;;;;;4992646;28;20265;-46
2023/09/20 04:04:50;;;;;;;3.33;2.60;;;19.70;57.30;;;;;;4993854;28;20481;-46
2023/09/20 04:07:16;;;;;;;3.40;2.50;;;19.60;57.60;;;;;;4991825;28;20438;-45
2023/09/20 04:09:42;;;;;;;4.57;2.33;;;19.60;57.80;;;;;;4990656;28;20445;-47
2023/09/20 04:12:08;;;;;;;2.40;2.10;;;19.50;57.80;;;;;;4992944;28;20658;-47
2023/09/20 04:14:33;;;;;;;2.93;2.50;;;19.60;57.80;;;;;;4991875;28;20441;-47
2023/09/20 04:16:59;;;;;;;3.53;3.23;;;19.50;57.80;;;;;;4994076;28;20219;-48
2023/09/20 04:19:25;;;;;;;2.10;1.90;;;19.50;57.70;;;;;;4993668;28;20256;-49
2023/09/20 04:21:50;;;;;;;5.37;2.97;;;19.50;57.70;;;;;;4993517;28;20199;-50
2023/09/20 04:24:17;;;;;;;4.53;2.43;;;19.60;57.60;;;;;;4991674;28;20582;-47
2023/09/20 04:26:43;;;;;;;7.87;2.70;;;19.60;57.30;;;;;;4992097;28;20198;-46
2023/09/20 04:29:08;;;;;;;4.53;2.13;;;19.60;58.00;;;;;;4988515;28;20441;-47
2023/09/20 04:31:34;;;;;;;2.63;2.40;;;19.70;57.60;;;;;;4991124;28;20548;-46
2023/09/20 04:34:00;;;;;;;2.77;2.53;;;19.70;57.60;;;;;;4994113;28;20630;-46
2023/09/20 04:36:28;;;;;;;5.70;2.50;;;19.60;57.00;;;;;;4992997;28;20258;-45
2023/09/20 04:38:55;;;;;;;2.80;2.13;;;19.60;57.60;;;;;;4987870;28;20933;-45
2023/09/20 04:41:21;;;;;;;3.90;2.10;;;19.30;57.50;;;;;;4989012;28;20458;-46
2023/09/20 04:43:47;;;;;;;2.90;2.60;;;19.30;57.50;;;;;;4991185;28;20809;-45
2023/09/20 04:46:13;;;;;;;4.80;2.47;;;19.20;57.80;;;;;;4992388;28;20449;-45
2023/09/20 04:48:41;;;;;;;5.50;2.47;;;19.00;58.30;;;;;;4990474;28;20794;-45
2023/09/20 04:51:08;;;;;;;4.30;2.40;;;18.80;58.70;;;;;;4990145;28;20202;-46
2023/09/20 04:53:34;;;;;;;3.17;2.87;;;18.90;58.60;;;;;;4989704;28;21051;-45
2023/09/20 04:56:00;;;;;;;2.60;2.20;;;18.40;59.80;;;;;;4993476;28;20433;-45
2023/09/20 04:58:26;;;;;;;5.80;2.93;;;18.10;60.60;;;;;;4992575;28;20214;-45
2023/09/20 05:00:53;;;;;;;4.37;3.20;;;17.90;61.90;;;;;;4991894;28;20446;-45
2023/09/20 05:03:19;;;;;;;4.40;2.83;;;17.80;62.40;;;;;;4990221;28;20242;-46
2023/09/20 05:05:47;;;;;;;3.57;2.90;;;17.70;62.80;;;;;;4987270;28;20570;-45
2023/09/20 05:08:15;;;;;;;5.07;2.93;;;17.70;62.70;;;;;;4989411;28;20452;-46
2023/09/20 05:10:44;;;;;;;8.90;2.90;;;17.80;62.70;;;;;;4992435;28;20593;-46
2023/09/20 05:13:10;;;;;;;3.30;2.50;;;17.60;63.10;;;;;;4991019;28;20537;-46
2023/09/20 05:15:37;;;;;;;3.10;2.80;;;17.50;63.50;;;;;;4989090;28;21536;-47
2023/09/20 05:18:04;;;;;;;4.13;2.43;;;17.60;63.50;;;;;;4992137;28;20313;-45
2023/09/20 05:20:33;;;;;;;5.77;2.30;;;17.70;63.40;;;;;;4989557;28;20449;-45
2023/09/20 05:22:59;;;;;;;4.77;2.33;;;17.90;66.10;;;;;;4992348;28;20520;-46
2023/09/20 05:25:26;;;;;;;3.87;2.30;;;18.20;64.40;;;;;;4987116;28;20474;-44
2023/09/20 05:27:51;;;;;;;2.30;2.10;;;18.50;62.30;;;;;;4991295;28;20218;-44
2023/09/20 05:30:18;;;;;;;2.93;2.23;;;18.70;61.10;;;;;;4990206;28;20493;-44
2023/09/20 05:32:45;;;;;;;2.20;2.00;;;18.80;60.20;;;;;;4989993;28;20206;-45
2023/09/20 05:35:11;;;;;;;2.40;2.20;;;18.90;59.80;;;;;;4990984;28;20530;-44
2023/09/20 05:37:38;;;;;;;2.57;2.37;;;19.00;59.40;;;;;;4990892;28;20477;-45
2023/09/20 05:40:07;;;;;;;2.63;1.90;;;19.10;59.00;;;;;;4987837;28;20781;-44
2023/09/20 05:42:32;;;;;;;2.83;2.40;;;19.20;59.00;;;;;;4983444;28;20481;-46
2023/09/20 05:44:58;;;;;;;2.07;1.93;;;19.10;59.10;;;;;;4985421;28;20486;-46
2023/09/20 05:47:24;;;;;;;4.00;2.30;;;19.20;58.90;;;;;;4987942;28;20225;-44
2023/09/20 05:49:49;;;;;;;2.40;2.20;;;19.40;58.60;;;;;;4991230;28;20222;-48
2023/09/20 05:52:15;;;;;;;2.60;2.33;;;19.50;58.20;;;;;;4990664;28;20215;-44
2023/09/20 05:54:44;;;;;;;5.67;2.37;;;19.70;58.00;;;;;;4989455;28;20199;-45
2023/09/20 05:57:09;;;;;;;2.57;2.20;;;19.90;57.50;;;;;;4988340;28;20517;-47
2023/09/20 05:59:35;;;;;;;2.93;2.67;;;20.00;57.20;;;;;;4988105;28;20509;-45
2023/09/20 06:02:00;;;;;;;2.03;1.93;;;20.00;57.30;;;;;;4988133;28;20200;-44
2023/09/20 06:04:26;;;;;;;2.60;2.40;;;20.10;56.90;;;;;;4989695;28;20614;-45
2023/09/20 06:06:54;;;;;;;2.30;2.07;;;20.10;56.90;;;;;;4984690;28;20195;-45
2023/09/20 06:09:19;;;;;;;2.67;1.90;;;20.00;57.10;;;;;;4991587;28;20195;-45
2023/09/20 06:11:45;;;;;;;3.57;2.67;;;20.20;57.20;;;;;;4990728;28;20536;-44
2023/09/20 06:14:10;;;;;;;2.60;2.40;;;20.20;57.00;;;;;;4990569;28;20194;-46
2023/09/20 06:16:36;;;;;;;2.57;1.80;;;20.20;56.90;;;;;;4988753;28;20285;-44
2023/09/20 06:19:02;;;;;;;2.83;2.30;;;20.50;56.80;;;;;;4991303;28;20238;-45
2023/09/20 06:21:28;;;;;;;2.80;2.10;;;20.60;56.40;;;;;;4983015;28;20666;-44
2023/09/20 06:23:54;;;;;;;2.80;2.33;;;20.70;56.30;;;;;;4991965;28;20201;-44
2023/09/20 06:26:19;;;;;;;3.50;2.53;;;20.90;56.10;;;;;;4988557;28;20895;-47
2023/09/20 06:28:45;;;;;;;3.67;2.10;;;20.90;56.00;;;;;;4982698;28;20546;-45
2023/09/20 06:31:13;;;;;;;3.97;2.30;;;21.10;55.40;;;;;;4991180;28;20313;-44
2023/09/20 06:33:47;;;;;;;5.40;2.33;;;21.20;55.70;;;;;;4989951;28;20621;-45
2023/09/20 06:36:20;;;;;;;2.87;2.30;;;21.20;55.50;;;;;;4982034;28;20472;-45
2023/09/20 06:38:49;;;;;;;3.07;2.23;;;21.40;55.20;;;;;;4987431;28;20442;-45
2023/09/20 06:41:15;;;;;;;3.90;2.27;;;21.60;55.00;;;;;;4990276;28;20446;-44
2023/09/20 06:43:42;;;;;;;4.60;2.10;;;21.50;55.30;;;;;;4986556;28;20523;-46
2023/09/20 06:46:07;;;;;;;4.53;2.30;;;21.60;55.70;;;;;;4987478;28;20441;-44
2023/09/20 06:48:33;;;;;;;2.10;1.90;;;21.90;55.30;;;;;;4985979;28;20445;-44
2023/09/20 06:51:00;;;;;;;2.53;2.33;;;22.30;55.30;;;;;;4990156;28;20245;-45
2023/09/20 06:53:25;;;;;;;3.10;2.80;;;22.50;53.60;;;;;;4990317;28;20194;-45
2023/09/20 06:55:51;;;;;;;4.03;2.30;;;22.60;53.80;;;;;;4983180;28;20446;-45
2023/09/20 06:58:17;;;;;;;2.80;2.00;;;22.60;53.40;;;;;;4989559;28;20230;-45
2023/09/20 07:00:43;;;;;;;3.40;2.17;;;22.70;52.90;;;;;;4986227;28;20278;-45
2023/09/20 07:03:10;;;;;;;3.10;2.53;;;22.80;53.40;;;;;;4986437;28;20536;-44
2023/09/20 07:05:36;;;;;;;4.07;2.07;;;23.00;53.00;;;;;;4987102;28;20207;-44
2023/09/20 07:08:03;;;;;;;2.90;1.90;;;23.30;53.00;;;;;;4992747;28;20870;-45
2023/09/20 07:10:29;;;;;;;2.53;2.00;;;23.60;52.30;;;;;;4989169;28;20207;-45
2023/09/20 07:12:55;;;;;;;2.40;2.20;;;23.60;52.10;;;;;;4988798;28;20456;-45
2023/09/20 07:15:25;;;;;;;2.37;1.50;;;23.80;52.00;;;;;;4985205;28;20443;-45
2023/09/20 07:18:01;;;;;;;2.97;2.20;;;24.10;50.90;;;;;;4987458;28;20233;-46
2023/09/20 07:20:29;;;;;;;3.80;2.10;;;24.30;50.60;;;;;;4985797;28;20448;-46
2023/09/20 07:22:55;;;;;;;2.33;2.13;;;24.70;50.40;;;;;;4987132;28;20871;-48
2023/09/20 07:25:22;;;;;;;2.23;2.00;;;25.00;49.60;;;;;;4992300;28;20509;-45
2023/09/20 07:27:50;;;;;;;4.17;2.37;;;25.40;49.00;;;;;;4993832;28;20520;-46
2023/09/20 07:30:18;;;;;;;4.03;2.50;;;25.60;48.30;;;;;;4984804;28;20477;-45
2023/09/20 07:32:52;;;;;;;3.93;2.40;;;25.50;47.70;;;;;;4987360;28;20450;-46
2023/09/20 07:35:27;;;;;;;2.00;1.60;;;25.20;48.70;;;;;;4992630;28;20441;-46
2023/09/20 07:37:57;;;;;;;3.63;2.30;;;25.20;48.80;;;;;;4991073;28;20583;-49
2023/09/20 07:40:30;;;;;;;4.57;2.60;;;25.50;48.60;;;;;;4988336;28;20469;-45
2023/09/20 07:43:07;;;;;;;2.20;1.80;;;25.60;48.10;;;;;;4983860;28;20462;-45
2023/09/20 07:45:39;;;;;;;3.60;1.93;;;25.70;47.70;;;;;;4990252;28;20449;-47
2023/09/20 07:48:12;;;;;;;2.43;2.10;;;25.80;47.80;;;;;;4987039;28;20446;-44
2023/09/20 07:50:40;;;;;;;9.80;2.73;;;25.70;47.30;;;;;;4989672;28;20453;-45
2023/09/20 07:53:10;;;;;;;2.50;2.10;;;25.70;48.30;;;;;;4988567;28;20458;-45
2023/09/20 07:55:36;;;;;;;6.77;2.00;;;25.90;47.30;;;;;;4991747;28;20461;-46
2023/09/20 07:58:01;;;;;;;4.50;2.30;;;25.90;46.90;;;;;;4989008;28;20892;-44
2023/09/20 08:00:27;;;;;;;2.10;1.90;;;25.90;46.80;;;;;;4989476;28;20567;-44
2023/09/20 08:02:54;;;;;;;5.33;2.10;;;25.80;47.10;;;;;;4980047;28;20556;-44
2023/09/20 08:05:22;;;;;;;4.10;1.87;;;25.80;47.40;;;;;;4991427;28;20222;-46
2023/09/20 08:07:47;;;;;;;1.70;1.60;;;25.90;47.80;;;;;;4992174;28;20445;-44
2023/09/20 08:10:13;;;;;;;4.30;1.83;;;26.20;48.10;;;;;;4993891;28;20426;-44
2023/09/20 08:12:39;;;;;;;2.47;2.10;;;26.50;46.90;;;;;;4992718;28;20750;-48
2023/09/20 08:15:05;;;;;;;2.23;1.90;;;26.80;45.80;;;;;;4992655;28;20195;-44
2023/09/20 08:20:16;;;;;;;2.13;1.83;;;27.30;43.60;;;;;;4993019;28;20437;-45
2023/09/20 09:01:10;;;;;;;6.80;2.37;;;28.30;41.70;;;;;;4991122;28;20457;-44
2023/09/20 09:03:36;;;;;;;2.17;1.90;;;28.30;41.50;;;;;;4990702;28;20461;-47
2023/09/20 09:06:02;;;;;;;3.93;1.53;;;28.50;41.20;;;;;;4991864;28;20425;-46
2023/09/20 09:08:28;;;;;;;3.27;1.87;;;28.80;40.70;;;;;;4982048;28;20449;-44
2023/09/20 09:10:54;;;;;;;2.83;1.90;;;29.00;40.50;;;;;;4980768;28;20226;-45
2023/09/20 09:13:20;;;;;;;1.83;1.53;;;29.20;40.20;;;;;;4986162;28;20492;-46
2023/09/20 09:15:47;;;;;;;2.17;1.73;;;29.30;38.90;;;;;;4988189;28;20605;-44
2023/09/20 09:18:16;;;;;;;5.33;1.90;;;29.10;38.10;;;;;;4990888;28;21019;-46
2023/09/20 09:20:42;;;;;;;1.70;1.50;;;29.10;38.50;;;;;;4991517;28;20865;-45
2023/09/20 09:23:07;;;;;;;2.20;2.00;;;29.20;38.90;;;;;;4989860;28;20496;-44
2023/09/20 09:25:35;;;;;;;6.40;2.07;;;29.40;37.80;;;;;;4992215;28;20246;-46
2023/09/20 09:28:00;;;;;;;2.33;1.37;;;29.20;37.20;;;;;;4992476;28;20249;-45
2023/09/20 09:30:26;;;;;;;3.00;1.83;;;29.20;37.70;;;;;;4987645;28;20442;-46
2023/09/20 09:32:52;;;;;;;1.93;1.70;;;29.10;37.30;;;;;;4986845;28;20197;-45
2023/09/20 09:35:21;;;;;;;2.30;1.93;;;28.90;37.20;;;;;;4988196;28;20209;-45
2023/09/20 09:37:46;;;;;;;2.27;1.83;;;28.90;37.90;;;;;;4991954;28;20257;-46
2023/09/20 09:40:14;;;;;;;1.90;1.80;;;28.70;37.50;;;;;;4989236;28;20450;-48
2023/09/20 09:42:42;;;;;;;2.20;1.83;;;28.70;37.90;;;;;;4984073;28;20199;-46
2023/09/20 09:45:09;;;;;;;2.80;2.10;;;28.90;37.60;;;;;;4977907;28;20525;-47
2023/09/20 09:47:36;;;;;;;1.80;1.70;;;29.10;37.20;;;;;;4987399;28;20438;-45
2023/09/20 09:50:06;;;;;;;2.83;2.00;;;29.20;37.30;;;;;;4988439;28;20507;-46
2023/09/20 09:52:33;;;;;;;2.57;2.10;;;29.30;37.50;;;;;;4989164;28;20647;-45
2023/09/20 09:54:59;;;;;;;2.00;1.80;;;29.20;36.70;;;;;;4984415;28;20453;-45
2023/09/20 09:57:25;;;;;;;2.40;2.20;;;29.20;36.90;;;;;;4981288;28;20493;-46
2023/09/20 09:59:51;;;;;;;2.40;1.97;;;29.50;36.50;;;;;;4987172;28;20576;-46
2023/09/20 10:02:18;;;;;;;4.33;2.03;;;29.80;36.20;;;;;;4985016;28;20195;-47
2023/09/20 10:05:01;;;;;;;3.07;1.90;;;29.80;35.50;;;;;;4988946;28;20516;-44
2023/09/20 10:07:33;;;;;;;2.40;2.20;;;29.40;36.10;;;;;;4989903;28;20452;-44
2023/09/20 10:10:08;;;;;;;1.70;1.60;;;29.20;37.00;;;;;;4989041;28;20457;-45
2023/09/20 10:12:37;;;;;;;2.00;1.80;;;29.50;36.50;;;;;;4989618;28;20508;-48
2023/09/20 10:15:07;;;;;;;2.87;2.13;;;29.60;36.30;;;;;;4988997;28;20444;-44
2023/09/20 10:17:34;;;;;;;2.50;2.30;;;29.70;37.00;;;;;;4990178;28;20500;-49
2023/09/20 10:20:07;;;;;;;2.10;2.00;;;30.00;36.20;;;;;;4988634;28;20883;-45
2023/09/20 10:22:40;;;;;;;2.23;2.03;;;30.20;35.70;;;;;;4988325;28;20446;-49
2023/09/20 10:25:29;;;;;;;2.60;1.87;;;29.90;35.00;;;;;;4991101;28;20510;-48
2023/09/20 10:27:55;;;;;;;5.00;2.43;;;30.20;35.60;;;;;;4978067;28;21239;-49
2023/09/20 10:30:21;;;;;;;2.90;2.20;;;30.40;35.40;;;;;;4987046;28;20500;-48
2023/09/20 10:32:58;;;;;;;2.80;1.80;;;30.60;35.10;;;;;;4991389;28;20217;-49
2023/09/20 10:35:31;;;;;;;4.10;2.20;;;30.50;36.00;;;;;;4989920;28;20975;-48
2023/09/20 10:38:08;;;;;;;2.53;2.07;;;30.80;36.40;;;;;;4991760;28;21024;-49
2023/09/20 10:40:50;;;;;;;1.70;1.60;;;31.00;34.90;;;;;;4994410;28;20460;-47
2023/09/20 10:43:41;;;;;;;2.83;2.47;;;31.20;33.70;;;;;;4989624;28;20461;-49
2023/09/20 10:46:14;;;;;;;2.60;2.40;;;31.40;33.20;;;;;;4993551;28;20713;-46
2023/09/20 10:48:51;;;;;;;2.37;2.13;;;31.50;32.60;;;;;;4973004;28;20521;-47
2023/09/20 10:51:48;;;;;;;2.40;2.20;;;31.60;31.90;;;;;;4994086;28;20484;-45
2023/09/20 10:54:20;;;;;;;3.03;2.33;;;31.90;32.00;;;;;;4990286;28;20499;-45
2023/09/20 10:56:50;;;;;;;4.13;2.30;;;32.00;30.50;;;;;;4994470;28;20845;-45
2023/09/20 10:59:17;;;;;;;2.20;2.10;;;31.80;31.20;;;;;;4994319;28;20462;-50
2023/09/20 11:02:16;;;;;;;3.10;2.30;;;31.60;31.30;;;;;;4991175;28;20823;-46
2023/09/20 11:04:42;;;;;;;2.60;2.40;;;31.70;30.00;;;;;;4989790;28;20862;-47
2023/09/20 11:07:08;;;;;;;3.97;2.60;;;32.10;30.00;;;;;;4993768;28;20444;-45
2023/09/20 11:09:34;;;;;;;2.43;2.23;;;32.30;30.00;;;;;;4996132;28;20620;-49
2023/09/20 11:12:06;;;;;;;2.93;2.53;;;32.40;29.20;;;;;;4985650;28;20518;-45
2023/09/20 11:14:37;;;;;;;3.17;2.30;;;32.40;29.00;;;;;;4994903;28;20987;-49
2023/09/20 11:17:05;;;;;;;2.53;2.33;;;32.50;29.90;;;;;;4996036;28;20531;-46
2023/09/20 11:19:31;;;;;;;3.13;2.43;;;32.60;29.80;;;;;;4993190;28;20460;-45
2023/09/20 11:21:57;;;;;;;2.80;2.53;;;32.80;30.00;;;;;;4992019;28;20437;-50
2023/09/20 11:24:25;;;;;;;2.30;2.10;;;33.00;29.20;;;;;;4994895;28;20481;-45
2023/09/20 11:26:53;;;;;;;4.17;2.90;;;33.00;28.90;;;;;;4995599;28;20660;-46
2023/09/20 11:29:19;;;;;;;2.60;2.40;;;32.90;28.80;;;;;;4994169;28;20445;-50
2023/09/20 11:31:45;;;;;;;4.67;2.97;;;33.00;28.40;;;;;;4995219;28;20456;-51
2023/09/20 11:34:11;;;;;;;7.40;3.00;;;33.00;28.30;;;;;;4996477;28;20201;-46
2023/09/20 11:36:38;;;;;;;4.20;2.70;;;33.10;27.90;;;;;;4989208;28;20257;-45
2023/09/20 11:39:05;;;;;;;2.50;2.30;;;33.40;27.90;;;;;;4992362;28;20504;-46
2023/09/20 11:41:33;;;;;;;3.10;2.43;;;33.60;27.30;;;;;;4994056;28;20432;-47
2023/09/20 11:44:00;;;;;;;4.00;2.60;;;33.60;26.50;;;;;;4994321;28;20432;-48
2023/09/20 11:46:33;;;;;;;2.60;2.40;;;33.40;26.30;;;;;;4992205;28;20465;-47
2023/09/20 11:49:00;;;;;;;2.47;2.27;;;32.90;27.90;;;;;;4973806;28;20549;-47
2023/09/20 11:51:26;;;;;;;2.70;2.50;;;33.10;28.20;;;;;;4982280;28;20437;-47
2023/09/20 11:53:52;;;;;;;2.80;2.30;;;33.30;28.00;;;;;;4993478;28;20444;-46
2023/09/20 11:56:30;;;;;;;2.30;2.03;;;33.40;27.70;;;;;;4989863;28;20194;-46
2023/09/20 11:59:02;;;;;;;1.77;1.67;;;33.20;27.50;;;;;;4993425;28;20483;-49
2023/09/20 12:01:33;;;;;;;2.37;2.00;;;33.20;27.90;;;;;;4986991;28;20457;-50
2023/09/20 12:03:59;;;;;;;2.10;1.70;;;33.20;28.40;;;;;;4995729;28;20958;-45
2023/09/20 12:06:25;;;;;;;1.50;1.40;;;33.20;28.20;;;;;;4990259;28;20832;-47
2023/09/20 12:08:52;;;;;;;1.93;1.73;;;33.20;28.60;;;;;;4990628;28;20496;-47
2023/09/20 12:11:18;;;;;;;2.83;1.67;;;33.20;28.30;;;;;;4992684;28;20198;-46
2023/09/20 12:13:46;;;;;;;2.07;1.90;;;33.10;28.60;;;;;;4993106;28;20452;-49
2023/09/20 12:16:12;;;;;;;1.90;1.80;;;33.00;29.30;;;;;;4992435;28;20265;-50
2023/09/20 12:18:38;;;;;;;3.43;1.53;;;32.90;29.10;;;;;;4986020;28;20497;-47
2023/09/20 12:21:04;;;;;;;3.00;1.73;;;32.90;29.20;;;;;;4985819;28;20191;-50
2023/09/20 12:23:30;;;;;;;1.67;1.50;;;33.10;29.40;;;;;;4988364;28;20186;-48
2023/09/20 12:25:56;;;;;;;2.17;1.77;;;33.20;29.20;;;;;;4988510;28;21023;-51
2023/09/20 12:28:23;;;;;;;2.43;1.80;;;33.30;29.40;;;;;;4991364;28;20301;-49
2023/09/20 12:30:50;;;;;;;1.83;1.40;;;33.60;29.40;;;;;;4990814;28;20241;-48
2023/09/20 12:33:19;;;;;;;2.90;1.87;;;33.70;29.10;;;;;;4970502;28;20457;-47
2023/09/20 12:35:45;;;;;;;1.70;1.60;;;33.70;29.10;;;;;;4971287;28;20854;-49
2023/09/20 12:38:11;;;;;;;1.77;1.67;;;33.60;29.50;;;;;;4989228;28;20489;-49
2023/09/20 12:40:36;;;;;;;3.40;1.80;;;33.40;29.50;;;;;;4995995;28;20520;-50
2023/09/20 12:43:03;;;;;;;2.77;1.73;;;33.30;30.00;;;;;;4983685;28;20725;-50
2023/09/20 12:45:29;;;;;;;2.90;1.60;;;33.20;30.20;;;;;;4993396;28;20245;-50
2023/09/20 12:47:55;;;;;;;1.60;1.50;;;33.40;30.10;;;;;;4991060;28;20810;-49
2023/09/20 12:50:21;;;;;;;2.50;1.67;;;33.40;30.00;;;;;;4992423;28;20210;-46
2023/09/20 12:52:47;;;;;;;2.57;1.60;;;33.40;30.30;;;;;;4985862;28;20442;-46
2023/09/20 12:55:13;;;;;;;1.60;1.50;;;33.50;30.50;;;;;;4991683;28;20190;-49
2023/09/20 12:57:40;;;;;;;1.50;1.40;;;33.20;30.00;;;;;;4988618;28;20539;-50
2023/09/20 13:00:12;;;;;;;2.20;1.70;;;32.90;29.70;;;;;;4990257;28;20537;-47
2023/09/20 13:02:37;;;;;;;2.03;1.40;;;32.90;30.30;;;;;;4989843;28;21003;-46
2023/09/20 13:05:07;;;;;;;2.33;1.47;;;32.80;30.30;;;;;;4988097;28;20446;-48
2023/09/20 13:07:32;;;;;;;1.33;1.23;;;32.80;30.40;;;;;;4973247;28;20202;-45
2023/09/20 13:09:58;;;;;;;1.47;1.37;;;32.60;29.60;;;;;;4989946;28;20445;-45
2023/09/20 13:12:24;;;;;;;5.63;1.90;;;32.40;30.50;;;;;;4987766;28;20270;-50
2023/09/20 13:14:50;;;;;;;1.60;1.50;;;32.30;30.40;;;;;;4986360;28;20198;-46
2023/09/20 13:17:16;;;;;;;1.47;1.30;;;32.30;30.60;;;;;;4990827;28;20489;-46
2023/09/20 13:19:41;;;;;;;1.53;1.37;;;32.50;30.30;;;;;;4991166;28;20437;-45
2023/09/20 13:22:09;;;;;;;1.90;1.27;;;32.40;30.30;;;;;;4991352;28;20273;-48
2023/09/20 13:24:35;;;;;;;1.30;1.20;;;32.40;30.40;;;;;;4991282;28;20238;-47
2023/09/20 13:27:03;;;;;;;2.17;1.70;;;32.60;30.90;;;;;;4990025;28;21194;-48
2023/09/20 13:29:29;;;;;;;4.17;2.00;;;32.80;30.50;;;;;;4990946;28;20438;-47
2023/09/20 13:31:54;;;;;;;2.80;1.60;;;33.00;30.20;;;;;;4990370;28;20456;-50